Time;durP1;ratioP1;P1;durP2;ratioP2;P2;SDS_P1;SDS_P2;PMS_P1;PMS_P2;Temp;Humidity;BMP_temperature;BMP_pressure;BME280_temperature;BME280_humidity;BME280_pressure;Samples;Min_cycle;Max_cycle;Signal;HPM_P1;HPM_P2
2022/11/04 00:00:09;;;;;;;3.77;1.83;;;10.60;99.90;;;;;;5056523;28;20446;-82
2022/11/04 00:02:39;;;;;;;2.10;1.63;;;10.60;99.90;;;;;;5056068;28;20495;-81
2022/11/04 00:05:15;;;;;;;1.97;1.47;;;10.40;99.90;;;;;;5056115;28;20453;-82
2022/11/04 00:13:23;;;;;;;1.50;1.40;;;10.40;99.90;;;;;;5055677;28;20795;-82
2022/11/04 00:18:51;;;;;;;1.90;1.37;;;10.60;99.90;;;;;;5056550;28;20428;-82
2022/11/04 00:30:38;;;;;;;1.77;1.20;;;10.50;99.90;;;;;;5037221;28;20291;-82
2022/11/04 00:33:25;;;;;;;1.80;1.70;;;10.50;99.90;;;;;;5055070;28;20446;-82
2022/11/04 00:35:55;;;;;;;1.40;1.30;;;10.40;99.90;;;;;;5055306;28;20469;-82
2022/11/04 00:38:38;;;;;;;0.90;0.87;;;10.30;99.90;;;;;;5054050;28;20450;-82
2022/11/04 00:41:24;;;;;;;1.55;1.40;;;10.40;99.90;;;;;;5055333;28;20481;-80
2022/11/04 00:43:55;;;;;;;1.02;0.95;;;10.30;99.90;;;;;;5054864;28;20214;-82
2022/11/04 00:46:30;;;;;;;1.27;1.17;;;10.30;99.90;;;;;;5055511;28;20208;-82
2022/11/04 00:48:58;;;;;;;1.43;1.33;;;10.40;99.90;;;;;;5054999;28;20454;-82
2022/11/04 00:51:46;;;;;;;1.67;1.57;;;10.40;99.90;;;;;;5055641;28;20482;-83
2022/11/04 00:57:23;;;;;;;1.20;1.10;;;10.40;99.90;;;;;;5055311;28;20572;-81
2022/11/04 00:59:55;;;;;;;1.63;1.23;;;10.50;99.90;;;;;;5054992;28;20460;-82
2022/11/04 01:02:31;;;;;;;1.50;1.20;;;10.40;99.90;;;;;;5055461;28;20482;-82
2022/11/04 01:05:15;;;;;;;1.10;1.00;;;10.40;99.90;;;;;;5054638;28;20530;-83
2022/11/04 01:07:49;;;;;;;1.10;1.00;;;10.50;99.90;;;;;;5055226;28;20451;-83
2022/11/04 01:10:31;;;;;;;0.93;0.93;;;10.50;99.90;;;;;;5054508;28;20974;-82
2022/11/04 01:16:05;;;;;;;1.40;0.90;;;10.40;99.90;;;;;;5056092;28;20486;-82
2022/11/04 01:18:33;;;;;;;0.73;0.73;;;10.30;99.90;;;;;;5054314;28;20465;-82
2022/11/04 01:21:24;;;;;;;1.43;1.30;;;10.20;99.90;;;;;;5055744;28;20493;-81
2022/11/04 01:23:55;;;;;;;1.87;1.13;;;10.20;99.90;;;;;;5054833;28;20459;-82
2022/11/04 01:27:00;;;;;;;1.30;1.30;;;10.30;99.90;;;;;;5055418;28;20453;-80
2022/11/04 01:29:47;;;;;;;1.07;1.00;;;10.40;99.90;;;;;;5051990;28;20450;-82
2022/11/04 01:32:18;;;;;;;1.47;1.37;;;10.50;99.90;;;;;;5054270;28;20471;-82
2022/11/04 01:34:46;;;;;;;1.43;1.33;;;10.50;99.90;;;;;;5055346;28;20473;-82
2022/11/04 01:37:13;;;;;;;1.70;1.37;;;10.50;99.90;;;;;;5054462;28;20507;-81
2022/11/04 01:39:40;;;;;;;1.80;1.47;;;10.60;99.90;;;;;;5054588;28;20532;-83
2022/11/04 01:42:06;;;;;;;1.42;1.15;;;10.60;99.90;;;;;;5054845;28;20852;-83
2022/11/04 01:44:58;;;;;;;1.83;1.20;;;10.50;99.90;;;;;;5054790;28;20212;-82
2022/11/04 01:47:36;;;;;;;1.80;1.70;;;10.50;99.90;;;;;;5054777;28;20972;-81
2022/11/04 01:50:08;;;;;;;1.20;1.10;;;10.50;99.90;;;;;;5057947;28;20460;-82
2022/11/04 01:52:40;;;;;;;1.33;1.20;;;10.50;99.90;;;;;;5059128;28;20493;-82
2022/11/04 01:55:12;;;;;;;2.10;1.57;;;10.50;99.90;;;;;;5059204;28;20831;-83
2022/11/04 01:57:41;;;;;;;1.03;0.93;;;10.40;99.90;;;;;;5058741;28;20486;-82
2022/11/04 02:00:12;;;;;;;1.40;1.13;;;10.50;99.90;;;;;;5059168;28;20548;-82
2022/11/04 02:02:46;;;;;;;1.30;1.20;;;10.50;99.90;;;;;;5057949;28;20208;-82
2022/11/04 02:05:13;;;;;;;1.20;1.10;;;10.40;99.90;;;;;;5059533;28;20447;-82
2022/11/04 02:07:40;;;;;;;1.33;1.23;;;10.30;99.90;;;;;;5058391;28;20451;-82
2022/11/04 02:10:07;;;;;;;1.10;1.00;;;10.30;99.90;;;;;;5059072;28;20486;-83
2022/11/04 02:12:48;;;;;;;0.87;0.87;;;10.30;99.90;;;;;;5058404;28;20446;-82
2022/11/04 02:15:20;;;;;;;1.25;1.00;;;10.20;99.90;;;;;;5058572;28;20942;-83
2022/11/04 02:18:05;;;;;;;0.70;0.70;;;10.20;99.90;;;;;;5059086;28;20293;-82
2022/11/04 02:21:01;;;;;;;0.90;0.80;;;10.10;99.90;;;;;;5058773;28;21130;-83
2022/11/04 02:24:04;;;;;;;1.08;1.08;;;10.10;99.90;;;;;;5058282;28;20204;-82
2022/11/04 02:27:20;;;;;;;0.98;0.98;;;10.00;99.90;;;;;;5016257;28;20214;-83
2022/11/04 02:30:04;;;;;;;0.60;0.60;;;10.00;99.90;;;;;;5058771;28;20204;-83
2022/11/04 02:32:53;;;;;;;0.88;0.80;;;10.00;99.90;;;;;;5059144;28;20454;-82
2022/11/04 02:35:25;;;;;;;0.50;0.50;;;9.90;99.90;;;;;;5059056;28;20218;-83
2022/11/04 02:37:58;;;;;;;0.80;0.55;;;9.90;99.90;;;;;;5058087;28;20231;-83
2022/11/04 02:40:32;;;;;;;0.70;0.70;;;9.90;99.90;;;;;;5059595;28;20232;-82
2022/11/04 02:43:03;;;;;;;0.90;0.90;;;9.90;99.90;;;;;;5058605;28;20217;-83
2022/11/04 02:45:37;;;;;;;1.05;0.80;;;9.90;99.90;;;;;;5059310;28;20278;-82
2022/11/04 02:48:11;;;;;;;1.55;0.80;;;9.80;99.90;;;;;;5058240;28;20208;-82
2022/11/04 02:50:43;;;;;;;1.52;1.35;;;9.90;99.90;;;;;;5058884;28;20228;-82
2022/11/04 02:53:16;;;;;;;0.82;0.82;;;10.00;99.90;;;;;;5058669;28;20208;-83
2022/11/04 02:55:47;;;;;;;0.70;0.70;;;9.80;99.90;;;;;;5059115;28;20211;-82
2022/11/04 02:58:18;;;;;;;0.80;0.80;;;9.90;99.90;;;;;;5058242;28;20580;-83
2022/11/04 03:00:50;;;;;;;0.82;0.82;;;9.90;99.90;;;;;;5058285;28;20295;-83
2022/11/04 03:03:22;;;;;;;0.55;0.50;;;10.00;99.90;;;;;;5058501;28;20195;-83
2022/11/04 03:05:52;;;;;;;0.98;0.85;;;9.80;99.90;;;;;;5059152;28;20204;-82
2022/11/04 03:08:24;;;;;;;0.65;0.60;;;9.90;99.90;;;;;;5058954;28;20188;-83
2022/11/04 03:10:54;;;;;;;1.17;1.07;;;9.90;99.90;;;;;;5059152;28;20301;-82
2022/11/04 03:13:26;;;;;;;1.00;0.95;;;9.90;99.90;;;;;;5058395;28;20441;-81
2022/11/04 03:15:58;;;;;;;0.70;0.70;;;9.90;99.90;;;;;;5055194;28;20208;-82
2022/11/04 03:18:33;;;;;;;1.13;0.85;;;10.00;99.90;;;;;;5055049;28;20224;-81
2022/11/04 03:21:02;;;;;;;0.75;0.70;;;10.10;99.90;;;;;;5055495;28;20215;-80
2022/11/04 03:23:29;;;;;;;0.80;0.77;;;10.10;99.90;;;;;;5055824;28;20208;-80
2022/11/04 03:26:04;;;;;;;0.70;0.70;;;10.20;99.90;;;;;;5056275;28;20297;-81
2022/11/04 03:28:38;;;;;;;1.80;1.20;;;10.20;99.90;;;;;;5056198;28;20224;-81
2022/11/04 03:31:13;;;;;;;0.90;0.90;;;10.20;99.90;;;;;;5056331;28;20473;-80
2022/11/04 03:33:45;;;;;;;1.37;1.13;;;10.20;99.90;;;;;;5056033;28;20469;-81
2022/11/04 03:36:12;;;;;;;1.17;0.83;;;10.20;99.90;;;;;;5055639;28;20540;-82
2022/11/04 03:38:39;;;;;;;2.03;1.00;;;10.00;99.90;;;;;;5055293;28;20485;-81
2022/11/04 03:41:13;;;;;;;0.80;0.80;;;10.00;99.90;;;;;;5055393;28;20841;-81
2022/11/04 03:43:42;;;;;;;0.77;0.70;;;9.90;99.90;;;;;;5055153;28;20223;-80
2022/11/04 03:46:22;;;;;;;1.33;0.63;;;9.80;99.90;;;;;;5055335;28;20813;-81
2022/11/04 03:49:19;;;;;;;1.10;0.80;;;9.70;99.90;;;;;;5054679;28;20499;-81
2022/11/04 03:52:01;;;;;;;1.40;0.90;;;9.70;99.90;;;;;;5050586;28;20475;-81
2022/11/04 03:54:31;;;;;;;3.00;0.80;;;9.70;99.90;;;;;;5055655;28;20208;-80
2022/11/04 03:57:25;;;;;;;1.88;0.60;;;9.70;99.90;;;;;;5054022;28;20243;-80
2022/11/04 04:00:22;;;;;;;2.13;1.15;;;9.70;99.90;;;;;;5054474;28;20589;-81
2022/11/04 04:03:31;;;;;;;2.25;2.05;;;9.80;99.90;;;;;;5054983;28;20619;-81
2022/11/04 04:13:07;;;;;;;2.00;1.65;;;9.70;99.90;;;;;;5053963;28;20237;-82
2022/11/04 04:15:46;;;;;;;1.40;1.05;;;9.80;99.90;;;;;;5054552;28;20214;-80
2022/11/04 04:22:38;;;;;;;2.67;1.10;;;9.70;99.90;;;;;;5054985;28;20457;-82
2022/11/04 04:31:56;;;;;;;0.90;0.90;;;9.60;99.90;;;;;;5042943;28;20233;-82
2022/11/04 04:50:48;;;;;;;1.50;0.93;;;9.70;99.90;;;;;;5151537;27;20529;-82
2022/11/04 04:53:15;;;;;;;0.90;0.90;;;9.70;99.90;;;;;;5137150;27;20211;-84
2022/11/04 04:55:42;;;;;;;2.35;1.10;;;9.70;99.90;;;;;;5145503;27;20268;-84
2022/11/04 04:58:09;;;;;;;4.95;1.10;;;9.70;99.90;;;;;;5134780;27;20205;-82
2022/11/04 05:00:35;;;;;;;1.63;1.10;;;9.70;99.90;;;;;;5134490;27;20222;-83
2022/11/04 05:03:02;;;;;;;2.07;1.97;;;9.70;99.90;;;;;;5134257;27;20756;-82
2022/11/04 05:05:29;;;;;;;0.98;0.98;;;9.70;99.90;;;;;;5134936;27;20540;-84
2022/11/04 05:17:10;;;;;;;2.05;1.95;;;9.60;99.90;;;;;;5101069;28;20195;-84
2022/11/04 05:20:18;;;;;;;1.65;1.45;;;9.60;99.90;;;;;;5117973;27;20196;-84
2022/11/04 05:22:47;;;;;;;2.20;1.17;;;9.60;99.90;;;;;;5133838;27;20730;-84
2022/11/04 05:25:33;;;;;;;1.50;1.40;;;9.60;99.90;;;;;;5133360;27;20200;-84
2022/11/04 05:28:00;;;;;;;1.63;1.52;;;9.60;99.90;;;;;;5134072;27;20205;-82
2022/11/04 05:30:27;;;;;;;2.03;1.92;;;9.60;99.90;;;;;;5135133;27;20224;-82
2022/11/04 05:32:54;;;;;;;2.10;2.00;;;9.50;99.90;;;;;;5135390;27;20204;-82
2022/11/04 05:35:21;;;;;;;1.80;1.70;;;9.50;99.90;;;;;;5134986;27;20286;-82
2022/11/04 05:37:48;;;;;;;2.65;2.30;;;9.50;99.90;;;;;;5133883;27;20650;-83
2022/11/04 05:40:15;;;;;;;3.00;2.25;;;9.40;99.90;;;;;;5133614;27;20198;-83
2022/11/04 05:42:43;;;;;;;3.20;2.88;;;9.40;99.90;;;;;;5133814;27;20210;-82
2022/11/04 05:45:10;;;;;;;5.60;2.78;;;9.30;99.90;;;;;;5133392;27;20291;-83
2022/11/04 05:47:37;;;;;;;2.65;2.45;;;9.30;99.90;;;;;;5144222;27;20282;-82
2022/11/04 05:50:04;;;;;;;2.30;2.08;;;9.30;99.90;;;;;;5134686;27;20220;-83
2022/11/04 05:52:31;;;;;;;1.75;1.65;;;9.30;99.90;;;;;;5134024;28;20306;-84
2022/11/04 05:54:58;;;;;;;2.03;1.80;;;9.30;99.90;;;;;;5133793;27;20204;-83
2022/11/04 05:57:24;;;;;;;3.28;1.90;;;9.30;99.90;;;;;;5134396;27;20198;-82
2022/11/04 05:59:53;;;;;;;1.38;1.30;;;9.30;99.90;;;;;;5133307;27;20197;-82
2022/11/04 06:02:19;;;;;;;2.53;1.80;;;9.30;99.90;;;;;;5120549;28;20227;-83
2022/11/04 06:04:46;;;;;;;2.08;1.85;;;9.30;99.90;;;;;;5119525;28;20217;-82
2022/11/04 06:07:13;;;;;;;1.40;1.30;;;9.30;99.90;;;;;;5119951;28;20210;-84
2022/11/04 06:09:40;;;;;;;3.00;2.00;;;9.30;99.90;;;;;;5119377;28;20224;-84
2022/11/04 06:12:08;;;;;;;4.05;2.65;;;9.30;99.90;;;;;;5118873;28;20243;-84
2022/11/04 06:14:35;;;;;;;2.25;1.70;;;9.20;99.90;;;;;;5118855;28;20211;-83
2022/11/04 06:20:30;;;;;;;2.60;2.40;;;9.20;99.90;;;;;;5118808;28;20236;-82
2022/11/04 06:22:58;;;;;;;2.40;2.20;;;9.20;99.90;;;;;;5120688;28;20726;-82
2022/11/04 06:25:33;;;;;;;2.20;2.05;;;9.20;99.90;;;;;;5118938;28;20216;-82
2022/11/04 06:28:11;;;;;;;2.47;1.80;;;9.20;99.90;;;;;;5117461;28;20200;-84
2022/11/04 06:33:27;;;;;;;2.88;2.60;;;9.10;99.90;;;;;;5118270;28;20205;-83
2022/11/04 06:36:07;;;;;;;3.63;3.03;;;9.10;99.90;;;;;;5119267;28;20199;-83
2022/11/04 06:38:59;;;;;;;3.00;2.80;;;9.10;99.90;;;;;;5125273;28;20211;-82
2022/11/04 06:41:30;;;;;;;2.75;2.40;;;9.10;99.90;;;;;;5123085;28;20223;-84
2022/11/04 06:44:05;;;;;;;1.92;1.83;;;9.00;99.90;;;;;;5119960;28;20685;-81
2022/11/04 06:46:35;;;;;;;1.70;1.60;;;9.00;99.90;;;;;;5121745;28;20210;-82
2022/11/04 06:49:03;;;;;;;1.80;1.70;;;9.00;99.90;;;;;;5121674;28;20215;-81
2022/11/04 06:51:31;;;;;;;2.53;2.25;;;9.00;99.90;;;;;;5121769;28;20231;-82
2022/11/04 06:53:58;;;;;;;2.58;2.38;;;9.10;99.90;;;;;;5123218;28;20201;-82
2022/11/04 06:56:26;;;;;;;2.38;1.85;;;9.10;99.90;;;;;;5123957;28;20203;-84
2022/11/04 06:58:54;;;;;;;1.92;1.75;;;9.10;99.90;;;;;;5122201;28;20201;-82
2022/11/04 07:01:24;;;;;;;1.80;1.65;;;9.10;99.90;;;;;;5122765;28;20232;-82
2022/11/04 07:03:51;;;;;;;1.20;1.20;;;9.10;99.90;;;;;;5123006;28;20200;-82
2022/11/04 07:06:19;;;;;;;2.42;2.05;;;9.10;99.90;;;;;;5123112;28;20208;-82
2022/11/04 07:08:48;;;;;;;3.15;2.25;;;9.10;99.90;;;;;;5120104;28;20197;-82
2022/11/04 07:11:15;;;;;;;2.30;2.10;;;9.10;99.90;;;;;;5117292;28;20232;-79
2022/11/04 07:13:42;;;;;;;4.93;2.58;;;9.20;99.90;;;;;;5108119;28;20288;-80
2022/11/04 07:16:09;;;;;;;2.47;2.33;;;9.20;99.90;;;;;;5110557;28;20199;-79
2022/11/04 07:18:36;;;;;;;1.60;1.40;;;9.30;99.90;;;;;;5106656;28;20194;-79
2022/11/04 07:21:04;;;;;;;4.85;2.10;;;9.40;99.90;;;;;;5111176;28;20217;-80
2022/11/04 07:23:31;;;;;;;2.20;1.98;;;9.50;99.90;;;;;;5113241;28;20200;-80
2022/11/04 07:26:02;;;;;;;4.10;2.72;;;9.50;99.90;;;;;;5110324;28;20203;-81
2022/11/04 07:28:28;;;;;;;2.23;2.13;;;9.50;99.90;;;;;;5109217;28;20218;-79
2022/11/04 07:30:57;;;;;;;2.27;1.93;;;9.60;99.90;;;;;;5123155;28;20482;-85
2022/11/04 07:33:24;;;;;;;3.47;3.20;;;9.60;99.90;;;;;;5123775;28;20445;-83
2022/11/04 07:35:52;;;;;;;3.10;2.15;;;9.70;99.90;;;;;;5118201;28;20461;-83
2022/11/04 07:38:19;;;;;;;2.85;2.53;;;9.70;99.90;;;;;;5116979;28;20206;-79
2022/11/04 07:40:45;;;;;;;2.60;2.00;;;9.80;99.90;;;;;;5116898;28;20221;-81
2022/11/04 07:46:29;;;;;;;2.22;2.03;;;9.90;99.90;;;;;;5098426;28;20453;-85
2022/11/04 07:48:58;;;;;;;2.03;1.87;;;10.00;99.90;;;;;;5104911;28;20225;-83
2022/11/04 07:51:25;;;;;;;6.95;2.20;;;10.00;99.90;;;;;;5114769;28;20487;-84
2022/11/04 07:53:55;;;;;;;2.07;1.57;;;10.10;99.90;;;;;;5122668;27;20208;-85
2022/11/04 07:56:22;;;;;;;3.77;1.90;;;10.10;99.90;;;;;;5125913;27;20462;-83
2022/11/04 07:58:49;;;;;;;1.85;1.70;;;10.20;99.90;;;;;;5116639;28;20479;-80
2022/11/04 08:01:19;;;;;;;2.00;1.50;;;10.10;99.90;;;;;;5111111;28;20217;-84
2022/11/04 08:03:48;;;;;;;2.50;2.30;;;10.10;99.90;;;;;;5110025;28;20448;-80
2022/11/04 08:06:16;;;;;;;2.70;2.07;;;10.20;99.90;;;;;;5104780;28;20462;-81
2022/11/04 08:08:43;;;;;;;2.03;1.93;;;10.30;99.90;;;;;;5114483;28;20450;-81
2022/11/04 08:11:12;;;;;;;2.33;2.07;;;10.20;99.90;;;;;;5115245;28;21083;-82
2022/11/04 08:13:39;;;;;;;2.00;1.90;;;10.20;99.90;;;;;;5113691;28;20461;-80
2022/11/04 08:16:11;;;;;;;3.20;1.77;;;10.30;99.90;;;;;;5113776;28;20463;-79
2022/11/04 08:19:04;;;;;;;3.80;2.37;;;10.30;99.90;;;;;;5115550;28;20452;-84
2022/11/04 08:21:38;;;;;;;1.77;1.50;;;10.40;99.90;;;;;;5102139;28;20468;-82
2022/11/04 08:24:22;;;;;;;2.30;1.40;;;10.40;99.90;;;;;;5122991;28;20444;-81
2022/11/04 08:26:49;;;;;;;2.07;1.50;;;10.40;99.90;;;;;;5116821;28;20459;-81
2022/11/04 08:32:28;;;;;;;1.80;1.30;;;10.50;99.90;;;;;;5106025;28;20434;-80
2022/11/04 08:34:56;;;;;;;1.20;1.10;;;10.50;99.90;;;;;;5115564;28;20454;-79
2022/11/04 08:37:22;;;;;;;5.40;1.70;;;10.40;99.90;;;;;;5115460;28;20202;-79
2022/11/04 08:39:49;;;;;;;4.63;2.03;;;10.50;99.90;;;;;;5115472;28;20443;-79
2022/11/04 08:42:16;;;;;;;4.50;2.07;;;10.50;99.90;;;;;;5115752;28;20470;-79
2022/11/04 08:44:43;;;;;;;2.73;2.27;;;10.60;99.90;;;;;;5115432;28;20500;-81
2022/11/04 08:47:10;;;;;;;1.40;1.03;;;10.70;99.90;;;;;;5106091;28;20445;-81
2022/11/04 08:49:40;;;;;;;3.50;1.60;;;10.80;99.90;;;;;;5108249;28;20470;-80
2022/11/04 08:52:09;;;;;;;1.17;1.10;;;11.00;99.90;;;;;;5105138;28;20869;-80
2022/11/04 08:54:36;;;;;;;0.90;0.90;;;11.10;99.90;;;;;;5106645;28;20995;-81
2022/11/04 08:57:03;;;;;;;2.20;1.57;;;11.10;99.90;;;;;;5114109;28;20463;-81
2022/11/04 08:59:30;;;;;;;1.40;0.87;;;11.20;99.90;;;;;;5114505;28;20449;-81
2022/11/04 09:01:56;;;;;;;1.87;0.90;;;11.20;99.90;;;;;;5112267;28;20469;-81
2022/11/04 09:04:23;;;;;;;1.23;1.00;;;11.30;99.90;;;;;;5113673;28;20452;-80
2022/11/04 09:06:51;;;;;;;2.40;0.90;;;11.30;99.90;;;;;;5108516;28;20449;-81
2022/11/04 09:09:19;;;;;;;2.30;1.40;;;11.30;99.90;;;;;;5110974;28;20453;-81
2022/11/04 09:11:47;;;;;;;1.40;1.10;;;11.20;99.90;;;;;;5116914;28;20521;-80
2022/11/04 09:14:14;;;;;;;1.83;1.17;;;11.30;99.90;;;;;;5116109;28;20440;-81
2022/11/04 09:16:42;;;;;;;1.80;1.00;;;11.30;99.90;;;;;;5118255;28;20558;-81
2022/11/04 09:19:09;;;;;;;1.10;1.00;;;11.40;99.90;;;;;;5116956;28;20452;-81
2022/11/04 09:21:36;;;;;;;0.70;0.70;;;11.20;99.90;;;;;;5117257;28;20508;-81
2022/11/04 09:24:04;;;;;;;0.90;0.90;;;11.20;99.90;;;;;;5116894;28;20452;-81
2022/11/04 09:26:33;;;;;;;0.93;0.93;;;11.20;99.90;;;;;;5117519;28;20461;-81
2022/11/04 09:29:00;;;;;;;3.00;2.00;;;11.20;99.90;;;;;;5116647;28;20456;-81
2022/11/04 09:31:29;;;;;;;1.37;1.20;;;11.30;99.90;;;;;;5117969;28;20489;-81
2022/11/04 09:33:56;;;;;;;2.10;1.40;;;11.40;99.90;;;;;;5117805;28;20464;-81
2022/11/04 09:36:23;;;;;;;1.70;1.60;;;11.50;99.90;;;;;;5112100;28;20462;-84
2022/11/04 09:38:50;;;;;;;1.60;1.50;;;11.30;99.90;;;;;;5119930;28;20452;-81
2022/11/04 09:41:37;;;;;;;5.50;1.50;;;11.40;99.90;;;;;;5118909;28;20471;-85
2022/11/04 09:44:18;;;;;;;1.43;1.33;;;11.40;99.90;;;;;;5114209;28;20862;-83
2022/11/04 09:46:48;;;;;;;1.37;1.00;;;11.50;99.90;;;;;;5119620;27;20456;-85
2022/11/04 09:49:15;;;;;;;2.20;1.27;;;11.60;99.90;;;;;;5119721;28;20464;-85
2022/11/04 09:51:45;;;;;;;2.70;0.93;;;11.70;99.90;;;;;;5119301;28;20481;-84
2022/11/04 09:54:18;;;;;;;1.00;0.90;;;11.80;99.90;;;;;;5118952;28;20449;-85
2022/11/04 09:56:50;;;;;;;1.13;1.13;;;11.80;99.90;;;;;;5119573;28;20535;-85
2022/11/04 09:59:24;;;;;;;1.80;0.90;;;11.80;99.90;;;;;;5118864;28;20445;-83
2022/11/04 10:02:02;;;;;;;1.57;0.93;;;12.00;99.90;;;;;;5121397;28;20529;-83
2022/11/04 10:04:42;;;;;;;1.00;1.00;;;12.20;99.90;;;;;;5101619;28;20946;-80
2022/11/04 10:07:20;;;;;;;1.77;1.40;;;12.10;99.90;;;;;;5115275;28;20437;-80
2022/11/04 10:13:26;;;;;;;1.30;1.13;;;12.40;99.90;;;;;;5094194;28;20946;-81
2022/11/04 10:23:06;;;;;;;2.00;0.97;;;12.90;99.90;;;;;;5122196;28;20444;-83
2022/11/04 10:25:39;;;;;;;1.03;0.87;;;13.10;99.90;;;;;;5121463;28;20456;-82
2022/11/04 10:28:11;;;;;;;2.00;1.27;;;13.20;99.90;;;;;;5122319;28;20513;-82
2022/11/04 10:30:42;;;;;;;1.20;1.10;;;13.30;99.90;;;;;;5120316;28;20489;-83
2022/11/04 10:33:16;;;;;;;1.20;1.03;;;13.50;99.90;;;;;;5122982;28;20452;-83
2022/11/04 10:35:47;;;;;;;1.50;1.40;;;13.60;99.90;;;;;;5120423;28;20452;-83
2022/11/04 10:38:19;;;;;;;2.00;1.23;;;13.70;99.90;;;;;;5116162;28;20452;-83
2022/11/04 10:40:48;;;;;;;1.90;0.90;;;13.80;99.90;;;;;;5118895;28;20476;-85
2022/11/04 10:43:20;;;;;;;1.53;0.90;;;14.00;99.90;;;;;;5119335;28;20546;-83
2022/11/04 10:46:01;;;;;;;0.67;0.67;;;14.00;99.90;;;;;;5119293;28;20441;-84
2022/11/04 10:48:34;;;;;;;0.80;0.80;;;13.90;99.90;;;;;;5118223;28;20459;-84
2022/11/04 10:51:01;;;;;;;3.60;1.50;;;13.90;99.90;;;;;;5119715;28;20482;-83
2022/11/04 10:53:30;;;;;;;1.10;0.80;;;14.00;99.90;;;;;;5118787;28;20462;-83
2022/11/04 10:56:04;;;;;;;2.63;1.13;;;14.10;99.90;;;;;;5123356;28;20952;-85
2022/11/04 10:58:32;;;;;;;1.47;1.40;;;14.10;99.90;;;;;;5121022;28;20533;-84
2022/11/04 11:01:25;;;;;;;1.07;0.80;;;14.10;99.90;;;;;;5122223;28;20476;-85
2022/11/04 11:03:53;;;;;;;3.23;1.83;;;14.20;99.90;;;;;;5123418;28;20455;-82
2022/11/04 11:06:29;;;;;;;1.17;1.07;;;14.10;99.90;;;;;;5114317;28;20445;-83
2022/11/04 11:08:59;;;;;;;3.30;1.17;;;13.80;99.50;;;;;;5118331;28;20449;-81
2022/11/04 11:15:42;;;;;;;2.50;1.07;;;13.40;99.20;;;;;;5018544;28;20450;-84
2022/11/04 11:18:20;;;;;;;1.43;1.33;;;13.40;99.90;;;;;;5046335;28;20479;-85
2022/11/04 11:20:50;;;;;;;5.53;1.97;;;13.40;99.80;;;;;;5063112;28;20507;-85
2022/11/04 11:23:36;;;;;;;1.70;1.60;;;13.40;99.90;;;;;;5066358;28;20498;-84
2022/11/04 11:26:05;;;;;;;2.00;1.30;;;13.40;99.90;;;;;;5065761;28;20440;-85
2022/11/04 11:28:36;;;;;;;1.03;1.03;;;13.30;99.90;;;;;;5063849;28;20452;-85
2022/11/04 11:31:07;;;;;;;3.43;1.20;;;13.20;99.90;;;;;;5067275;28;20511;-83
2022/11/04 11:33:38;;;;;;;2.30;1.17;;;13.20;99.90;;;;;;5062873;28;20456;-85
2022/11/04 11:36:15;;;;;;;1.20;1.20;;;13.30;99.90;;;;;;5065801;28;20456;-85
2022/11/04 11:38:54;;;;;;;1.80;1.53;;;13.40;99.90;;;;;;5062922;28;20554;-84
2022/11/04 11:41:36;;;;;;;1.60;1.10;;;13.50;99.90;;;;;;5067285;28;20464;-85
2022/11/04 11:44:20;;;;;;;3.50;1.30;;;13.50;99.90;;;;;;5066533;28;20464;-85
2022/11/04 11:46:53;;;;;;;3.70;2.00;;;13.70;99.90;;;;;;5062024;28;20963;-83
2022/11/04 11:49:27;;;;;;;1.67;1.57;;;13.60;99.70;;;;;;5062085;28;20457;-82
2022/11/04 11:51:55;;;;;;;2.63;2.33;;;13.60;99.90;;;;;;5062663;28;21000;-82
2022/11/04 11:54:32;;;;;;;2.40;1.43;;;13.60;99.20;;;;;;5060829;28;20448;-82
2022/11/04 11:57:02;;;;;;;2.53;1.57;;;13.50;98.90;;;;;;5064608;28;20438;-79
2022/11/04 11:59:36;;;;;;;3.27;1.07;;;13.70;99.50;;;;;;5067973;28;20456;-81
2022/11/04 12:02:30;;;;;;;2.10;1.37;;;13.90;99.20;;;;;;5061567;28;20478;-83
2022/11/04 12:04:59;;;;;;;1.53;1.43;;;14.10;99.40;;;;;;5063357;28;20452;-85
2022/11/04 12:07:36;;;;;;;1.30;0.70;;;14.70;99.90;;;;;;5063687;28;20449;-84
2022/11/04 12:10:16;;;;;;;0.93;0.93;;;15.20;98.10;;;;;;5062035;28;20453;-84
2022/11/04 12:12:57;;;;;;;1.20;0.97;;;15.30;97.00;;;;;;5062810;28;20471;-84
2022/11/04 12:15:35;;;;;;;2.53;1.13;;;15.00;97.00;;;;;;5061628;28;20446;-82
2022/11/04 12:18:31;;;;;;;2.10;1.23;;;14.80;96.90;;;;;;5040520;28;20447;-84
2022/11/04 12:21:05;;;;;;;2.00;1.07;;;14.70;97.30;;;;;;5050624;28;20981;-85
2022/11/04 12:23:44;;;;;;;1.67;0.97;;;14.70;97.50;;;;;;5066183;28;20453;-86
2022/11/04 12:26:20;;;;;;;2.57;1.40;;;14.50;98.00;;;;;;5065624;28;20448;-85
2022/11/04 12:29:10;;;;;;;2.47;1.47;;;14.50;98.10;;;;;;5065141;28;20431;-86
2022/11/04 12:31:44;;;;;;;1.33;1.23;;;14.30;98.40;;;;;;5066237;28;20556;-85
2022/11/04 12:34:29;;;;;;;2.67;1.50;;;14.10;98.80;;;;;;5065436;28;20454;-85
2022/11/04 12:37:10;;;;;;;1.63;1.30;;;13.90;99.00;;;;;;5065580;28;20456;-85
2022/11/04 12:40:12;;;;;;;3.03;1.40;;;14.10;98.90;;;;;;5066402;28;20462;-86
2022/11/04 12:46:16;;;;;;;1.43;1.23;;;13.90;99.00;;;;;;5046462;28;20447;-86
2022/11/04 12:52:51;;;;;;;4.97;1.87;;;13.90;99.90;;;;;;5068133;28;20844;-84
2022/11/04 12:55:32;;;;;;;4.43;2.93;;;14.10;99.60;;;;;;5059586;28;20845;-84
2022/11/04 12:58:40;;;;;;;1.67;1.40;;;14.10;99.10;;;;;;5056061;28;20480;-86
2022/11/04 13:01:13;;;;;;;1.73;1.63;;;14.20;99.10;;;;;;5059417;28;21393;-84
2022/11/04 13:03:48;;;;;;;1.60;1.00;;;14.30;99.20;;;;;;5056689;28;20838;-80
2022/11/04 13:06:19;;;;;;;3.00;1.50;;;14.50;98.50;;;;;;5040064;28;20475;-83
2022/11/04 13:08:51;;;;;;;2.07;1.47;;;14.60;98.60;;;;;;5057673;28;20476;-83
2022/11/04 13:11:23;;;;;;;2.20;1.20;;;14.50;99.10;;;;;;5060134;28;20523;-83
2022/11/04 13:14:02;;;;;;;1.20;1.10;;;14.50;98.80;;;;;;5062789;28;20464;-84
2022/11/04 13:16:31;;;;;;;3.27;1.20;;;14.80;99.60;;;;;;5059835;28;20470;-83
2022/11/04 13:18:58;;;;;;;2.30;1.20;;;15.00;97.90;;;;;;5061106;28;20956;-80
2022/11/04 13:21:30;;;;;;;1.73;1.20;;;15.10;97.90;;;;;;5055184;28;20479;-82
2022/11/04 13:24:04;;;;;;;1.90;1.60;;;15.10;96.90;;;;;;5064023;28;20456;-81
2022/11/04 13:26:31;;;;;;;1.10;1.00;;;15.10;97.40;;;;;;5065569;28;20519;-81
2022/11/04 13:29:12;;;;;;;1.93;0.97;;;14.80;97.40;;;;;;5063167;28;21164;-82
2022/11/04 13:35:19;;;;;;;1.83;1.00;;;14.40;98.00;;;;;;5061564;28;20825;-82
2022/11/04 13:37:55;;;;;;;1.27;0.97;;;14.50;98.20;;;;;;5063272;28;20457;-81
2022/11/04 13:40:31;;;;;;;3.37;1.60;;;14.20;98.10;;;;;;5064462;28;20468;-81
2022/11/04 13:45:59;;;;;;;0.83;0.57;;;13.30;99.00;;;;;;5067773;28;20466;-81
2022/11/04 13:48:30;;;;;;;1.07;0.90;;;12.40;99.90;;;;;;5068283;28;20444;-83
2022/11/04 13:51:38;;;;;;;3.33;0.70;;;11.50;99.90;;;;;;5068086;28;20562;-83
2022/11/04 14:01:51;;;;;;;0.80;0.77;;;9.60;99.90;;;;;;5019526;28;20486;-84
2022/11/04 14:04:39;;;;;;;1.55;1.10;;;9.30;99.90;;;;;;5038424;28;20219;-84
2022/11/04 14:17:59;;;;;;;3.10;2.00;;;9.40;99.90;;;;;;5037035;28;20278;-83
2022/11/04 14:21:04;;;;;;;2.28;2.05;;;9.50;99.90;;;;;;5043367;28;20485;-83
2022/11/04 14:23:45;;;;;;;2.10;2.00;;;9.40;99.90;;;;;;5047330;28;20241;-83
2022/11/04 14:26:15;;;;;;;2.17;2.00;;;9.60;99.90;;;;;;5048414;28;20214;-83
2022/11/04 14:28:49;;;;;;;4.85;4.00;;;9.70;99.90;;;;;;5049230;28;20462;-83
2022/11/04 14:31:36;;;;;;;5.03;4.20;;;9.80;99.90;;;;;;5049037;28;20429;-84
2022/11/04 14:34:16;;;;;;;1.25;1.25;;;9.80;99.90;;;;;;5047855;28;20708;-83
2022/11/04 14:36:49;;;;;;;2.95;2.70;;;9.70;99.90;;;;;;5046671;28;20218;-83
2022/11/04 14:39:25;;;;;;;5.20;2.50;;;9.70;99.90;;;;;;5049609;28;20211;-83
2022/11/04 14:42:26;;;;;;;1.30;1.20;;;9.60;99.90;;;;;;5050071;28;20231;-83
2022/11/04 14:45:55;;;;;;;2.60;1.70;;;9.50;99.90;;;;;;5044361;28;20209;-84
2022/11/04 14:48:21;;;;;;;2.40;2.20;;;9.60;99.90;;;;;;5040059;28;20212;-84
2022/11/04 14:50:52;;;;;;;6.65;3.33;;;9.50;99.90;;;;;;5041839;28;20228;-84
2022/11/04 14:53:25;;;;;;;2.75;2.55;;;9.50;99.90;;;;;;5042486;28;20197;-84
2022/11/04 14:56:03;;;;;;;10.95;3.83;;;9.50;99.90;;;;;;5056936;28;20533;-85
2022/11/04 14:58:30;;;;;;;2.15;2.05;;;9.60;99.90;;;;;;5058930;28;20233;-84
2022/11/04 15:01:00;;;;;;;4.28;2.30;;;9.70;99.90;;;;;;5055574;28;20238;-82
2022/11/04 15:03:31;;;;;;;1.87;1.23;;;10.00;99.90;;;;;;5057292;28;20208;-84
2022/11/04 15:06:02;;;;;;;2.23;2.00;;;10.10;99.90;;;;;;5056511;28;20440;-83
2022/11/04 15:08:33;;;;;;;1.77;1.67;;;10.20;99.90;;;;;;5063703;28;20431;-83
2022/11/04 15:11:03;;;;;;;4.10;1.60;;;10.20;99.90;;;;;;5063780;28;20484;-83
2022/11/04 15:13:33;;;;;;;1.23;1.23;;;10.30;99.90;;;;;;5060784;28;20456;-84
2022/11/04 15:16:06;;;;;;;1.37;0.90;;;10.40;99.90;;;;;;5060432;28;21011;-85
2022/11/04 15:18:33;;;;;;;2.33;1.10;;;10.60;99.90;;;;;;5059764;28;20541;-85
2022/11/04 15:21:04;;;;;;;2.00;1.80;;;10.70;99.90;;;;;;5064338;28;20616;-84
2022/11/04 15:23:34;;;;;;;2.10;1.43;;;10.70;99.90;;;;;;5070605;28;20486;-84
2022/11/04 15:26:02;;;;;;;1.23;1.00;;;10.90;99.90;;;;;;5070393;28;20878;-84
2022/11/04 15:28:33;;;;;;;1.80;1.13;;;10.90;99.90;;;;;;5065443;28;20454;-86
2022/11/04 15:31:07;;;;;;;1.90;1.80;;;10.80;99.90;;;;;;5059301;28;20468;-86